Terminal Aerodrome Forecast
Issued by NWS

Home | Current Version | Previous Version | Text Only | Print | Product List | Glossary On
Versions: 1 2 3 4 5 6 7 8 9 10 11 12 13 14 15 16 17 18 19 20 21 22 23 24 25 26 27 28 29 30 31 32 33
000
FTUS43 KDLH 050504 AAA
TAFHIB
TAF AMD
KHIB 050504Z 0505/0524 24006KT 6SM BR SCT015 OVC025
      TEMPO 0505/0509 3SM BR OVC015
     FM050900 26004KT 5SM BR OVC012
     FM051200 20004KT P6SM BKN008
     FM051400 16004KT P6SM BKN008
     FM051700 13006KT P6SM BKN015
     FM052100 12006KT P6SM VCSH OVC015=

USA.gov is the U.S. government's official web portal to all federal, state and local government web resources and services.